sensor_id;sensor_type;location;lat;lon;timestamp;P1;durP1;ratioP1;P2;durP2;ratioP2
66739;SDS011;53653;52.188;8.602;2022-09-03T00:00:50;5.28;;;1.52;;
66739;SDS011;53653;52.188;8.602;2022-09-03T00:04:02;4.07;;;1.17;;
66739;SDS011;53653;52.188;8.602;2022-09-03T00:06:22;6.20;;;1.60;;
66739;SDS011;53653;52.188;8.602;2022-09-03T00:11:50;4.05;;;1.10;;
66739;SDS011;53653;52.188;8.602;2022-09-03T00:14:22;4.93;;;1.15;;
66739;SDS011;53653;52.188;8.602;2022-09-03T00:16:55;3.17;;;1.00;;
66739;SDS011;53653;52.188;8.602;2022-09-03T00:19:30;4.45;;;1.17;;
66739;SDS011;53653;52.188;8.602;2022-09-03T00:22:03;5.00;;;1.25;;
66739;SDS011;53653;52.188;8.602;2022-09-03T00:24:35;4.78;;;1.40;;
66739;SDS011;53653;52.188;8.602;2022-09-03T00:27:05;6.45;;;1.20;;
66739;SDS011;53653;52.188;8.602;2022-09-03T00:29:40;4.80;;;1.40;;
66739;SDS011;53653;52.188;8.602;2022-09-03T00:32:16;3.65;;;1.15;;
66739;SDS011;53653;52.188;8.602;2022-09-03T00:34:54;3.85;;;1.50;;
66739;SDS011;53653;52.188;8.602;2022-09-03T00:37:23;5.07;;;1.10;;
66739;SDS011;53653;52.188;8.602;2022-09-03T00:39:48;6.40;;;1.40;;
66739;SDS011;53653;52.188;8.602;2022-09-03T00:50:19;8.63;;;1.30;;
66739;SDS011;53653;52.188;8.602;2022-09-03T01:00:48;5.43;;;1.48;;
66739;SDS011;53653;52.188;8.602;2022-09-03T01:03:26;4.53;;;1.35;;
66739;SDS011;53653;52.188;8.602;2022-09-03T01:06:09;4.13;;;1.30;;
66739;SDS011;53653;52.188;8.602;2022-09-03T01:14:25;3.92;;;1.30;;
66739;SDS011;53653;52.188;8.602;2022-09-03T01:25:14;4.20;;;1.20;;
66739;SDS011;53653;52.188;8.602;2022-09-03T01:30:47;5.20;;;1.45;;
66739;SDS011;53653;52.188;8.602;2022-09-03T01:33:40;4.57;;;1.43;;
66739;SDS011;53653;52.188;8.602;2022-09-03T01:39:01;5.30;;;1.40;;
66739;SDS011;53653;52.188;8.602;2022-09-03T01:59:11;4.40;;;1.30;;
66739;SDS011;53653;52.188;8.602;2022-09-03T02:01:45;5.07;;;1.40;;
66739;SDS011;53653;52.188;8.602;2022-09-03T02:04:18;4.85;;;1.38;;
66739;SDS011;53653;52.188;8.602;2022-09-03T02:06:47;4.10;;;1.35;;
66739;SDS011;53653;52.188;8.602;2022-09-03T02:09:15;5.90;;;1.50;;
66739;SDS011;53653;52.188;8.602;2022-09-03T02:11:41;4.35;;;1.30;;
66739;SDS011;53653;52.188;8.602;2022-09-03T02:14:11;5.60;;;1.60;;
66739;SDS011;53653;52.188;8.602;2022-09-03T02:16:36;5.57;;;1.40;;
66739;SDS011;53653;52.188;8.602;2022-09-03T02:19:04;7.10;;;1.70;;
66739;SDS011;53653;52.188;8.602;2022-09-03T02:21:35;5.68;;;1.75;;
66739;SDS011;53653;52.188;8.602;2022-09-03T02:24:03;9.37;;;1.57;;
66739;SDS011;53653;52.188;8.602;2022-09-03T02:26:30;9.52;;;1.50;;
66739;SDS011;53653;52.188;8.602;2022-09-03T02:28:55;5.82;;;1.40;;
66739;SDS011;53653;52.188;8.602;2022-09-03T02:31:22;4.97;;;1.40;;
66739;SDS011;53653;52.188;8.602;2022-09-03T02:33:47;4.30;;;1.33;;
66739;SDS011;53653;52.188;8.602;2022-09-03T02:36:14;4.38;;;1.40;;
66739;SDS011;53653;52.188;8.602;2022-09-03T02:38:44;7.97;;;1.75;;
66739;SDS011;53653;52.188;8.602;2022-09-03T02:41:10;5.47;;;1.50;;
66739;SDS011;53653;52.188;8.602;2022-09-03T02:43:46;6.97;;;1.80;;
66739;SDS011;53653;52.188;8.602;2022-09-03T02:46:26;4.80;;;1.50;;
66739;SDS011;53653;52.188;8.602;2022-09-03T02:48:57;8.00;;;1.60;;
66739;SDS011;53653;52.188;8.602;2022-09-03T02:51:22;5.70;;;1.70;;
66739;SDS011;53653;52.188;8.602;2022-09-03T02:53:47;6.23;;;1.30;;
66739;SDS011;53653;52.188;8.602;2022-09-03T02:56:13;6.67;;;2.10;;
66739;SDS011;53653;52.188;8.602;2022-09-03T02:58:38;3.95;;;1.20;;
66739;SDS011;53653;52.188;8.602;2022-09-03T03:01:04;5.15;;;1.75;;
66739;SDS011;53653;52.188;8.602;2022-09-03T03:03:30;4.93;;;1.70;;
66739;SDS011;53653;52.188;8.602;2022-09-03T03:06:00;5.55;;;1.40;;
66739;SDS011;53653;52.188;8.602;2022-09-03T03:08:28;5.70;;;1.60;;
66739;SDS011;53653;52.188;8.602;2022-09-03T03:10:55;4.70;;;2.13;;
66739;SDS011;53653;52.188;8.602;2022-09-03T03:13:27;3.92;;;1.33;;
66739;SDS011;53653;52.188;8.602;2022-09-03T03:16:00;4.60;;;1.65;;
66739;SDS011;53653;52.188;8.602;2022-09-03T03:18:30;5.00;;;1.52;;
66739;SDS011;53653;52.188;8.602;2022-09-03T03:20:55;4.50;;;1.40;;
66739;SDS011;53653;52.188;8.602;2022-09-03T03:23:21;4.07;;;1.52;;
66739;SDS011;53653;52.188;8.602;2022-09-03T03:25:47;4.40;;;1.50;;
66739;SDS011;53653;52.188;8.602;2022-09-03T03:28:13;4.07;;;1.50;;
66739;SDS011;53653;52.188;8.602;2022-09-03T03:30:39;4.72;;;1.60;;
66739;SDS011;53653;52.188;8.602;2022-09-03T03:33:06;4.43;;;1.57;;
66739;SDS011;53653;52.188;8.602;2022-09-03T03:35:32;5.72;;;1.60;;
66739;SDS011;53653;52.188;8.602;2022-09-03T03:37:59;4.90;;;1.40;;
66739;SDS011;53653;52.188;8.602;2022-09-03T03:40:24;4.80;;;1.50;;
66739;SDS011;53653;52.188;8.602;2022-09-03T03:42:50;4.38;;;1.40;;
66739;SDS011;53653;52.188;8.602;2022-09-03T03:45:16;6.50;;;1.80;;
66739;SDS011;53653;52.188;8.602;2022-09-03T03:47:41;6.60;;;1.65;;
66739;SDS011;53653;52.188;8.602;2022-09-03T03:50:07;4.43;;;1.37;;
66739;SDS011;53653;52.188;8.602;2022-09-03T03:52:32;4.80;;;1.73;;
66739;SDS011;53653;52.188;8.602;2022-09-03T03:54:58;3.90;;;1.37;;
66739;SDS011;53653;52.188;8.602;2022-09-03T03:57:23;5.30;;;1.50;;
66739;SDS011;53653;52.188;8.602;2022-09-03T03:59:49;4.60;;;1.43;;
66739;SDS011;53653;52.188;8.602;2022-09-03T04:02:15;4.40;;;1.48;;
66739;SDS011;53653;52.188;8.602;2022-09-03T04:04:41;4.88;;;1.35;;
66739;SDS011;53653;52.188;8.602;2022-09-03T04:07:07;8.47;;;1.40;;
66739;SDS011;53653;52.188;8.602;2022-09-03T04:09:33;4.50;;;1.43;;
66739;SDS011;53653;52.188;8.602;2022-09-03T04:11:58;5.63;;;1.40;;
66739;SDS011;53653;52.188;8.602;2022-09-03T04:14:24;4.97;;;1.80;;
66739;SDS011;53653;52.188;8.602;2022-09-03T04:16:51;5.18;;;1.88;;
66739;SDS011;53653;52.188;8.602;2022-09-03T04:19:16;7.03;;;2.53;;
66739;SDS011;53653;52.188;8.602;2022-09-03T04:21:43;6.15;;;2.50;;
66739;SDS011;53653;52.188;8.602;2022-09-03T04:24:10;5.15;;;2.47;;
66739;SDS011;53653;52.188;8.602;2022-09-03T04:26:36;6.33;;;2.20;;
66739;SDS011;53653;52.188;8.602;2022-09-03T04:29:03;6.65;;;2.40;;
66739;SDS011;53653;52.188;8.602;2022-09-03T04:31:33;5.88;;;2.03;;
66739;SDS011;53653;52.188;8.602;2022-09-03T04:34:00;5.40;;;1.90;;
66739;SDS011;53653;52.188;8.602;2022-09-03T04:36:27;6.47;;;1.80;;
66739;SDS011;53653;52.188;8.602;2022-09-03T04:38:54;5.00;;;1.80;;
66739;SDS011;53653;52.188;8.602;2022-09-03T04:41:21;5.40;;;1.88;;
66739;SDS011;53653;52.188;8.602;2022-09-03T04:43:54;7.22;;;1.92;;
66739;SDS011;53653;52.188;8.602;2022-09-03T04:46:22;4.30;;;1.60;;
66739;SDS011;53653;52.188;8.602;2022-09-03T04:48:51;5.20;;;2.15;;
66739;SDS011;53653;52.188;8.602;2022-09-03T04:51:19;5.78;;;1.77;;
66739;SDS011;53653;52.188;8.602;2022-09-03T04:53:52;5.15;;;2.03;;
66739;SDS011;53653;52.188;8.602;2022-09-03T04:56:22;4.93;;;1.80;;
66739;SDS011;53653;52.188;8.602;2022-09-03T04:58:59;5.20;;;1.80;;
66739;SDS011;53653;52.188;8.602;2022-09-03T05:01:27;6.10;;;1.80;;
66739;SDS011;53653;52.188;8.602;2022-09-03T05:03:54;4.82;;;1.63;;
66739;SDS011;53653;52.188;8.602;2022-09-03T05:06:22;7.90;;;1.70;;
66739;SDS011;53653;52.188;8.602;2022-09-03T05:08:49;5.13;;;1.58;;
66739;SDS011;53653;52.188;8.602;2022-09-03T05:11:15;6.83;;;1.80;;
66739;SDS011;53653;52.188;8.602;2022-09-03T05:13:42;6.28;;;2.13;;
66739;SDS011;53653;52.188;8.602;2022-09-03T05:16:08;6.50;;;1.95;;
66739;SDS011;53653;52.188;8.602;2022-09-03T05:18:34;5.57;;;1.90;;
66739;SDS011;53653;52.188;8.602;2022-09-03T05:21:01;5.95;;;1.85;;
66739;SDS011;53653;52.188;8.602;2022-09-03T05:23:29;5.28;;;1.73;;
66739;SDS011;53653;52.188;8.602;2022-09-03T05:25:56;4.93;;;1.67;;
66739;SDS011;53653;52.188;8.602;2022-09-03T05:28:22;4.90;;;1.63;;
66739;SDS011;53653;52.188;8.602;2022-09-03T05:30:56;4.80;;;1.40;;
66739;SDS011;53653;52.188;8.602;2022-09-03T05:33:23;6.20;;;1.80;;
66739;SDS011;53653;52.188;8.602;2022-09-03T05:35:48;5.27;;;1.37;;
66739;SDS011;53653;52.188;8.602;2022-09-03T05:38:14;7.20;;;1.65;;
66739;SDS011;53653;52.188;8.602;2022-09-03T05:40:41;5.07;;;1.80;;
66739;SDS011;53653;52.188;8.602;2022-09-03T05:43:06;5.78;;;1.33;;
66739;SDS011;53653;52.188;8.602;2022-09-03T05:45:31;5.83;;;1.63;;
66739;SDS011;53653;52.188;8.602;2022-09-03T05:47:58;4.20;;;1.60;;
66739;SDS011;53653;52.188;8.602;2022-09-03T05:50:25;5.88;;;1.67;;
66739;SDS011;53653;52.188;8.602;2022-09-03T05:52:51;7.70;;;1.80;;
66739;SDS011;53653;52.188;8.602;2022-09-03T05:55:17;5.10;;;1.70;;
66739;SDS011;53653;52.188;8.602;2022-09-03T05:57:42;5.07;;;1.60;;
66739;SDS011;53653;52.188;8.602;2022-09-03T06:00:09;5.93;;;1.73;;
66739;SDS011;53653;52.188;8.602;2022-09-03T06:02:35;6.30;;;1.90;;
66739;SDS011;53653;52.188;8.602;2022-09-03T06:05:01;4.43;;;1.42;;
66739;SDS011;53653;52.188;8.602;2022-09-03T06:07:26;5.97;;;1.70;;
66739;SDS011;53653;52.188;8.602;2022-09-03T06:09:51;5.40;;;1.70;;
66739;SDS011;53653;52.188;8.602;2022-09-03T06:12:17;5.55;;;1.65;;
66739;SDS011;53653;52.188;8.602;2022-09-03T06:14:42;5.27;;;1.60;;
66739;SDS011;53653;52.188;8.602;2022-09-03T06:17:08;4.40;;;1.60;;
66739;SDS011;53653;52.188;8.602;2022-09-03T06:19:35;5.73;;;1.80;;
66739;SDS011;53653;52.188;8.602;2022-09-03T06:22:01;3.80;;;1.45;;
66739;SDS011;53653;52.188;8.602;2022-09-03T06:24:26;4.30;;;1.67;;
66739;SDS011;53653;52.188;8.602;2022-09-03T06:26:53;4.35;;;1.60;;
66739;SDS011;53653;52.188;8.602;2022-09-03T06:29:20;5.18;;;1.67;;
66739;SDS011;53653;52.188;8.602;2022-09-03T06:31:46;4.47;;;1.60;;
66739;SDS011;53653;52.188;8.602;2022-09-03T06:34:12;6.20;;;1.55;;
66739;SDS011;53653;52.188;8.602;2022-09-03T06:36:38;4.85;;;1.70;;
66739;SDS011;53653;52.188;8.602;2022-09-03T06:39:05;7.47;;;1.90;;
66739;SDS011;53653;52.188;8.602;2022-09-03T06:41:30;6.68;;;1.88;;
66739;SDS011;53653;52.188;8.602;2022-09-03T06:44:06;5.45;;;2.00;;
66739;SDS011;53653;52.188;8.602;2022-09-03T06:46:36;5.87;;;1.60;;
66739;SDS011;53653;52.188;8.602;2022-09-03T06:49:08;7.85;;;1.90;;
66739;SDS011;53653;52.188;8.602;2022-09-03T06:51:35;4.72;;;1.48;;
66739;SDS011;53653;52.188;8.602;2022-09-03T06:54:04;6.55;;;1.80;;
66739;SDS011;53653;52.188;8.602;2022-09-03T06:56:34;5.18;;;1.80;;
66739;SDS011;53653;52.188;8.602;2022-09-03T06:59:04;4.13;;;1.47;;
66739;SDS011;53653;52.188;8.602;2022-09-03T07:01:32;6.18;;;1.60;;
66739;SDS011;53653;52.188;8.602;2022-09-03T07:03:58;4.60;;;1.70;;
66739;SDS011;53653;52.188;8.602;2022-09-03T07:06:26;5.35;;;1.60;;
66739;SDS011;53653;52.188;8.602;2022-09-03T07:08:53;5.57;;;1.77;;
66739;SDS011;53653;52.188;8.602;2022-09-03T07:11:22;6.87;;;1.53;;
66739;SDS011;53653;52.188;8.602;2022-09-03T07:13:51;5.38;;;1.45;;
66739;SDS011;53653;52.188;8.602;2022-09-03T07:16:27;4.75;;;1.65;;
66739;SDS011;53653;52.188;8.602;2022-09-03T07:18:55;9.07;;;1.90;;
66739;SDS011;53653;52.188;8.602;2022-09-03T07:21:22;5.47;;;1.80;;
66739;SDS011;53653;52.188;8.602;2022-09-03T07:23:49;6.33;;;1.70;;
66739;SDS011;53653;52.188;8.602;2022-09-03T07:26:20;6.22;;;1.77;;
66739;SDS011;53653;52.188;8.602;2022-09-03T07:28:50;4.88;;;1.77;;
66739;SDS011;53653;52.188;8.602;2022-09-03T07:31:21;5.18;;;1.48;;
66739;SDS011;53653;52.188;8.602;2022-09-03T07:33:59;4.38;;;1.50;;
66739;SDS011;53653;52.188;8.602;2022-09-03T07:36:28;5.50;;;1.90;;
66739;SDS011;53653;52.188;8.602;2022-09-03T07:38:54;6.03;;;1.80;;
66739;SDS011;53653;52.188;8.602;2022-09-03T07:41:21;8.05;;;1.73;;
66739;SDS011;53653;52.188;8.602;2022-09-03T07:43:47;5.30;;;1.90;;
66739;SDS011;53653;52.188;8.602;2022-09-03T07:46:14;4.27;;;1.70;;
66739;SDS011;53653;52.188;8.602;2022-09-03T07:48:47;5.05;;;1.90;;
66739;SDS011;53653;52.188;8.602;2022-09-03T07:51:21;6.95;;;1.70;;
66739;SDS011;53653;52.188;8.602;2022-09-03T07:53:50;5.30;;;1.77;;
66739;SDS011;53653;52.188;8.602;2022-09-03T07:56:17;4.93;;;1.77;;
66739;SDS011;53653;52.188;8.602;2022-09-03T07:58:42;6.68;;;1.38;;
66739;SDS011;53653;52.188;8.602;2022-09-03T08:01:10;5.97;;;1.77;;
66739;SDS011;53653;52.188;8.602;2022-09-03T08:03:37;5.20;;;1.70;;
66739;SDS011;53653;52.188;8.602;2022-09-03T08:06:06;6.05;;;1.67;;
66739;SDS011;53653;52.188;8.602;2022-09-03T08:08:33;5.80;;;1.60;;
66739;SDS011;53653;52.188;8.602;2022-09-03T08:11:06;4.57;;;1.70;;
66739;SDS011;53653;52.188;8.602;2022-09-03T08:16:08;4.30;;;1.60;;
66739;SDS011;53653;52.188;8.602;2022-09-03T08:18:34;5.23;;;1.70;;
66739;SDS011;53653;52.188;8.602;2022-09-03T08:21:05;6.05;;;1.70;;
66739;SDS011;53653;52.188;8.602;2022-09-03T08:23:35;6.68;;;2.13;;
66739;SDS011;53653;52.188;8.602;2022-09-03T08:26:02;6.20;;;1.60;;
66739;SDS011;53653;52.188;8.602;2022-09-03T08:28:27;6.40;;;1.80;;
66739;SDS011;53653;52.188;8.602;2022-09-03T08:30:54;4.57;;;1.33;;
66739;SDS011;53653;52.188;8.602;2022-09-03T08:33:20;5.37;;;1.70;;
66739;SDS011;53653;52.188;8.602;2022-09-03T08:36:11;4.97;;;1.67;;
66739;SDS011;53653;52.188;8.602;2022-09-03T08:38:38;5.63;;;1.52;;
66739;SDS011;53653;52.188;8.602;2022-09-03T08:41:08;4.50;;;1.50;;
66739;SDS011;53653;52.188;8.602;2022-09-03T08:46:18;5.13;;;1.53;;
66739;SDS011;53653;52.188;8.602;2022-09-03T08:48:45;5.70;;;1.50;;
66739;SDS011;53653;52.188;8.602;2022-09-03T08:51:12;6.10;;;1.67;;
66739;SDS011;53653;52.188;8.602;2022-09-03T08:53:45;6.38;;;2.15;;
66739;SDS011;53653;52.188;8.602;2022-09-03T08:56:17;4.63;;;1.65;;
66739;SDS011;53653;52.188;8.602;2022-09-03T08:58:48;4.77;;;1.50;;
66739;SDS011;53653;52.188;8.602;2022-09-03T09:04:34;5.57;;;1.70;;
66739;SDS011;53653;52.188;8.602;2022-09-03T09:15:26;5.00;;;1.90;;
66739;SDS011;53653;52.188;8.602;2022-09-03T09:18:01;4.83;;;1.63;;
66739;SDS011;53653;52.188;8.602;2022-09-03T09:20:47;4.35;;;1.63;;
66739;SDS011;53653;52.188;8.602;2022-09-03T09:23:17;5.25;;;1.63;;
66739;SDS011;53653;52.188;8.602;2022-09-03T09:25:49;5.78;;;1.63;;
66739;SDS011;53653;52.188;8.602;2022-09-03T09:28:19;8.48;;;1.90;;
66739;SDS011;53653;52.188;8.602;2022-09-03T09:30:47;5.13;;;1.80;;
66739;SDS011;53653;52.188;8.602;2022-09-03T09:33:17;6.43;;;1.80;;
66739;SDS011;53653;52.188;8.602;2022-09-03T09:35:44;6.55;;;1.60;;
66739;SDS011;53653;52.188;8.602;2022-09-03T09:38:11;5.32;;;1.70;;
66739;SDS011;53653;52.188;8.602;2022-09-03T09:40:38;8.77;;;1.70;;
66739;SDS011;53653;52.188;8.602;2022-09-03T09:45:44;4.88;;;1.80;;
66739;SDS011;53653;52.188;8.602;2022-09-03T09:48:15;4.95;;;1.60;;
66739;SDS011;53653;52.188;8.602;2022-09-03T09:50:41;7.05;;;1.50;;
66739;SDS011;53653;52.188;8.602;2022-09-03T09:53:07;6.03;;;1.50;;
66739;SDS011;53653;52.188;8.602;2022-09-03T09:58:44;6.57;;;1.60;;
66739;SDS011;53653;52.188;8.602;2022-09-03T10:01:11;5.60;;;1.70;;
66739;SDS011;53653;52.188;8.602;2022-09-03T10:06:24;4.78;;;1.60;;
66739;SDS011;53653;52.188;8.602;2022-09-03T10:09:11;6.43;;;1.77;;
66739;SDS011;53653;52.188;8.602;2022-09-03T10:11:40;7.43;;;2.03;;
66739;SDS011;53653;52.188;8.602;2022-09-03T10:14:12;5.93;;;1.80;;
66739;SDS011;53653;52.188;8.602;2022-09-03T10:16:56;5.85;;;1.77;;
66739;SDS011;53653;52.188;8.602;2022-09-03T10:20:17;7.35;;;1.88;;
66739;SDS011;53653;52.188;8.602;2022-09-03T10:22:58;6.10;;;1.60;;
66739;SDS011;53653;52.188;8.602;2022-09-03T10:25:26;5.05;;;1.70;;
66739;SDS011;53653;52.188;8.602;2022-09-03T10:27:59;5.10;;;1.70;;
66739;SDS011;53653;52.188;8.602;2022-09-03T10:30:26;4.70;;;1.83;;
66739;SDS011;53653;52.188;8.602;2022-09-03T10:35:30;4.90;;;1.52;;
66739;SDS011;53653;52.188;8.602;2022-09-03T10:41:14;4.30;;;1.60;;
66739;SDS011;53653;52.188;8.602;2022-09-03T10:46:06;4.97;;;1.70;;
66739;SDS011;53653;52.188;8.602;2022-09-03T10:51:42;5.05;;;2.10;;
66739;SDS011;53653;52.188;8.602;2022-09-03T11:10:45;5.00;;;2.00;;
66739;SDS011;53653;52.188;8.602;2022-09-03T11:16:13;4.97;;;1.90;;
66739;SDS011;53653;52.188;8.602;2022-09-03T11:18:49;5.45;;;1.77;;
66739;SDS011;53653;52.188;8.602;2022-09-03T11:21:19;6.50;;;2.10;;
66739;SDS011;53653;52.188;8.602;2022-09-03T11:24:31;4.57;;;1.85;;
66739;SDS011;53653;52.188;8.602;2022-09-03T11:27:34;6.63;;;1.80;;
66739;SDS011;53653;52.188;8.602;2022-09-03T11:32:25;5.90;;;1.88;;
66739;SDS011;53653;52.188;8.602;2022-09-03T11:35:25;5.43;;;1.87;;
66739;SDS011;53653;52.188;8.602;2022-09-03T11:37:52;5.95;;;1.80;;
66739;SDS011;53653;52.188;8.602;2022-09-03T11:40:28;5.80;;;1.90;;
66739;SDS011;53653;52.188;8.602;2022-09-03T11:43:10;7.68;;;1.80;;
66739;SDS011;53653;52.188;8.602;2022-09-03T11:46:08;4.80;;;1.70;;
66739;SDS011;53653;52.188;8.602;2022-09-03T11:48:38;5.00;;;1.63;;
66739;SDS011;53653;52.188;8.602;2022-09-03T11:53:57;5.10;;;1.58;;
66739;SDS011;53653;52.188;8.602;2022-09-03T11:56:24;5.15;;;1.90;;
66739;SDS011;53653;52.188;8.602;2022-09-03T12:01:28;5.05;;;1.80;;
66739;SDS011;53653;52.188;8.602;2022-09-03T12:14:39;5.70;;;1.67;;
66739;SDS011;53653;52.188;8.602;2022-09-03T12:17:26;5.35;;;1.65;;
66739;SDS011;53653;52.188;8.602;2022-09-03T12:19:58;9.13;;;1.70;;
66739;SDS011;53653;52.188;8.602;2022-09-03T12:22:28;4.90;;;1.60;;
66739;SDS011;53653;52.188;8.602;2022-09-03T12:24:55;4.38;;;1.58;;
66739;SDS011;53653;52.188;8.602;2022-09-03T12:27:32;5.88;;;1.65;;
66739;SDS011;53653;52.188;8.602;2022-09-03T12:30:02;4.82;;;1.73;;
66739;SDS011;53653;52.188;8.602;2022-09-03T12:32:30;4.90;;;1.80;;
66739;SDS011;53653;52.188;8.602;2022-09-03T12:35:10;5.33;;;1.80;;
66739;SDS011;53653;52.188;8.602;2022-09-03T12:37:36;6.07;;;1.80;;
66739;SDS011;53653;52.188;8.602;2022-09-03T12:40:02;5.43;;;1.83;;
66739;SDS011;53653;52.188;8.602;2022-09-03T12:42:28;5.30;;;1.60;;
66739;SDS011;53653;52.188;8.602;2022-09-03T12:45:03;5.63;;;1.60;;
66739;SDS011;53653;52.188;8.602;2022-09-03T12:47:36;5.05;;;2.03;;
66739;SDS011;53653;52.188;8.602;2022-09-03T12:50:10;4.43;;;1.70;;
66739;SDS011;53653;52.188;8.602;2022-09-03T12:52:46;4.93;;;1.90;;
66739;SDS011;53653;52.188;8.602;2022-09-03T13:01:02;4.57;;;1.80;;
66739;SDS011;53653;52.188;8.602;2022-09-03T13:06:18;8.68;;;1.75;;
66739;SDS011;53653;52.188;8.602;2022-09-03T13:08:47;6.07;;;1.97;;
66739;SDS011;53653;52.188;8.602;2022-09-03T13:11:17;5.47;;;1.90;;
66739;SDS011;53653;52.188;8.602;2022-09-03T13:13:55;5.93;;;2.08;;
66739;SDS011;53653;52.188;8.602;2022-09-03T13:19:03;6.90;;;2.20;;
66739;SDS011;53653;52.188;8.602;2022-09-03T13:34:49;5.15;;;1.67;;
66739;SDS011;53653;52.188;8.602;2022-09-03T13:40:21;4.80;;;1.80;;
66739;SDS011;53653;52.188;8.602;2022-09-03T13:42:51;6.60;;;1.92;;
66739;SDS011;53653;52.188;8.602;2022-09-03T13:48:40;6.05;;;1.90;;
66739;SDS011;53653;52.188;8.602;2022-09-03T13:51:51;5.70;;;1.80;;
66739;SDS011;53653;52.188;8.602;2022-09-03T13:54:36;6.10;;;2.37;;
66739;SDS011;53653;52.188;8.602;2022-09-03T13:59:50;4.88;;;1.88;;
66739;SDS011;53653;52.188;8.602;2022-09-03T14:02:22;6.20;;;2.22;;
66739;SDS011;53653;52.188;8.602;2022-09-03T14:07:26;7.10;;;1.87;;
66739;SDS011;53653;52.188;8.602;2022-09-03T14:13:11;6.43;;;2.17;;
66739;SDS011;53653;52.188;8.602;2022-09-03T14:15:42;6.47;;;1.70;;
66739;SDS011;53653;52.188;8.602;2022-09-03T14:18:22;8.35;;;2.00;;
66739;SDS011;53653;52.188;8.602;2022-09-03T14:21:00;5.70;;;1.97;;
66739;SDS011;53653;52.188;8.602;2022-09-03T14:26:20;5.40;;;1.90;;
66739;SDS011;53653;52.188;8.602;2022-09-03T14:29:02;5.47;;;1.88;;
66739;SDS011;53653;52.188;8.602;2022-09-03T15:01:48;6.00;;;1.90;;
66739;SDS011;53653;52.188;8.602;2022-09-03T15:04:54;6.10;;;1.70;;
66739;SDS011;53653;52.188;8.602;2022-09-03T15:07:35;4.70;;;1.63;;
66739;SDS011;53653;52.188;8.602;2022-09-03T15:13:06;5.30;;;1.90;;
66739;SDS011;53653;52.188;8.602;2022-09-03T15:23:22;5.95;;;1.70;;
66739;SDS011;53653;52.188;8.602;2022-09-03T15:26:20;5.70;;;1.80;;
66739;SDS011;53653;52.188;8.602;2022-09-03T15:37:11;4.63;;;1.70;;
66739;SDS011;53653;52.188;8.602;2022-09-03T15:39:42;6.68;;;1.80;;
66739;SDS011;53653;52.188;8.602;2022-09-03T15:42:19;6.15;;;1.60;;
66739;SDS011;53653;52.188;8.602;2022-09-03T15:44:51;8.00;;;1.90;;
66739;SDS011;53653;52.188;8.602;2022-09-03T15:47:36;5.07;;;1.93;;
66739;SDS011;53653;52.188;8.602;2022-09-03T15:53:02;6.57;;;2.30;;
66739;SDS011;53653;52.188;8.602;2022-09-03T15:55:41;4.97;;;1.95;;
66739;SDS011;53653;52.188;8.602;2022-09-03T16:03:46;6.38;;;1.67;;
66739;SDS011;53653;52.188;8.602;2022-09-03T16:15:06;6.53;;;1.73;;
66739;SDS011;53653;52.188;8.602;2022-09-03T16:20:25;5.38;;;2.03;;
66739;SDS011;53653;52.188;8.602;2022-09-03T16:25:56;5.57;;;1.70;;
66739;SDS011;53653;52.188;8.602;2022-09-03T16:28:36;5.03;;;1.70;;
66739;SDS011;53653;52.188;8.602;2022-09-03T16:36:38;4.47;;;1.52;;
66739;SDS011;53653;52.188;8.602;2022-09-03T16:47:56;4.90;;;1.70;;
66739;SDS011;53653;52.188;8.602;2022-09-03T17:04:48;4.80;;;1.90;;
66739;SDS011;53653;52.188;8.602;2022-09-03T17:12:54;5.03;;;1.70;;
66739;SDS011;53653;52.188;8.602;2022-09-03T17:15:47;5.20;;;1.70;;
66739;SDS011;53653;52.188;8.602;2022-09-03T17:21:11;4.68;;;1.80;;
66739;SDS011;53653;52.188;8.602;2022-09-03T17:26:55;5.28;;;1.70;;
66739;SDS011;53653;52.188;8.602;2022-09-03T17:29:49;6.35;;;1.80;;
66739;SDS011;53653;52.188;8.602;2022-09-03T17:32:42;5.53;;;1.50;;
66739;SDS011;53653;52.188;8.602;2022-09-03T17:48:43;5.18;;;1.73;;
66739;SDS011;53653;52.188;8.602;2022-09-03T17:51:23;6.73;;;2.00;;
66739;SDS011;53653;52.188;8.602;2022-09-03T18:02:11;5.35;;;1.80;;
66739;SDS011;53653;52.188;8.602;2022-09-03T18:05:18;5.17;;;1.80;;
66739;SDS011;53653;52.188;8.602;2022-09-03T18:16:36;5.22;;;2.00;;
66739;SDS011;53653;52.188;8.602;2022-09-03T18:19:13;6.97;;;1.90;;
66739;SDS011;53653;52.188;8.602;2022-09-03T18:22:19;7.28;;;1.80;;
66739;SDS011;53653;52.188;8.602;2022-09-03T18:25:05;6.30;;;1.85;;
66739;SDS011;53653;52.188;8.602;2022-09-03T18:27:55;5.28;;;1.75;;
66739;SDS011;53653;52.188;8.602;2022-09-03T18:30:41;6.68;;;1.83;;
66739;SDS011;53653;52.188;8.602;2022-09-03T18:33:25;7.37;;;1.93;;
66739;SDS011;53653;52.188;8.602;2022-09-03T18:36:09;7.93;;;2.10;;
66739;SDS011;53653;52.188;8.602;2022-09-03T18:39:05;7.07;;;2.20;;
66739;SDS011;53653;52.188;8.602;2022-09-03T18:51:10;6.63;;;2.60;;
66739;SDS011;53653;52.188;8.602;2022-09-03T18:54:25;5.65;;;2.33;;
66739;SDS011;53653;52.188;8.602;2022-09-03T18:57:30;8.52;;;2.80;;
66739;SDS011;53653;52.188;8.602;2022-09-03T19:00:40;8.45;;;2.75;;
66739;SDS011;53653;52.188;8.602;2022-09-03T19:07:01;8.10;;;4.00;;
66739;SDS011;53653;52.188;8.602;2022-09-03T19:10:13;6.57;;;3.35;;
66739;SDS011;53653;52.188;8.602;2022-09-03T19:22:27;7.38;;;2.92;;
66739;SDS011;53653;52.188;8.602;2022-09-03T19:25:12;6.82;;;3.42;;
66739;SDS011;53653;52.188;8.602;2022-09-03T19:47:03;7.78;;;3.17;;
66739;SDS011;53653;52.188;8.602;2022-09-03T19:53:07;9.20;;;3.20;;
66739;SDS011;53653;52.188;8.602;2022-09-03T19:55:55;8.60;;;2.97;;
66739;SDS011;53653;52.188;8.602;2022-09-03T19:58:48;9.38;;;3.20;;
66739;SDS011;53653;52.188;8.602;2022-09-03T20:01:37;6.28;;;3.20;;
66739;SDS011;53653;52.188;8.602;2022-09-03T20:04:44;9.87;;;3.77;;
66739;SDS011;53653;52.188;8.602;2022-09-03T20:07:45;7.75;;;3.10;;
66739;SDS011;53653;52.188;8.602;2022-09-03T20:10:33;6.38;;;3.13;;
66739;SDS011;53653;52.188;8.602;2022-09-03T20:13:07;7.40;;;3.08;;
66739;SDS011;53653;52.188;8.602;2022-09-03T20:15:41;7.93;;;3.17;;
66739;SDS011;53653;52.188;8.602;2022-09-03T20:33:26;7.90;;;2.77;;
66739;SDS011;53653;52.188;8.602;2022-09-03T20:40:53;7.72;;;2.90;;
66739;SDS011;53653;52.188;8.602;2022-09-03T20:52:14;6.32;;;2.35;;
66739;SDS011;53653;52.188;8.602;2022-09-03T20:55:09;6.50;;;2.30;;
66739;SDS011;53653;52.188;8.602;2022-09-03T21:00:43;5.77;;;2.50;;
66739;SDS011;53653;52.188;8.602;2022-09-03T21:03:20;8.50;;;2.40;;
66739;SDS011;53653;52.188;8.602;2022-09-03T21:08:59;7.88;;;2.67;;
66739;SDS011;53653;52.188;8.602;2022-09-03T21:11:57;7.07;;;2.47;;
66739;SDS011;53653;52.188;8.602;2022-09-03T21:20:07;5.85;;;2.10;;
66739;SDS011;53653;52.188;8.602;2022-09-03T21:31:14;7.97;;;2.60;;
66739;SDS011;53653;52.188;8.602;2022-09-03T21:33:45;7.78;;;2.53;;
66739;SDS011;53653;52.188;8.602;2022-09-03T21:36:14;8.18;;;2.30;;
66739;SDS011;53653;52.188;8.602;2022-09-03T21:38:52;7.60;;;2.78;;
66739;SDS011;53653;52.188;8.602;2022-09-03T21:41:28;8.03;;;2.83;;
66739;SDS011;53653;52.188;8.602;2022-09-03T21:44:25;6.88;;;2.78;;
66739;SDS011;53653;52.188;8.602;2022-09-03T21:47:07;7.45;;;2.70;;
66739;SDS011;53653;52.188;8.602;2022-09-03T21:53:01;8.70;;;2.85;;
66739;SDS011;53653;52.188;8.602;2022-09-03T21:55:25;8.40;;;2.90;;
66739;SDS011;53653;52.188;8.602;2022-09-03T22:00:55;7.82;;;2.67;;
66739;SDS011;53653;52.188;8.602;2022-09-03T22:03:30;9.85;;;3.03;;
66739;SDS011;53653;52.188;8.602;2022-09-03T22:06:00;6.77;;;2.57;;
66739;SDS011;53653;52.188;8.602;2022-09-03T22:11:46;8.30;;;2.90;;
66739;SDS011;53653;52.188;8.602;2022-09-03T22:14:17;6.38;;;2.60;;
66739;SDS011;53653;52.188;8.602;2022-09-03T22:16:46;5.83;;;2.80;;
66739;SDS011;53653;52.188;8.602;2022-09-03T22:19:15;5.70;;;2.38;;
66739;SDS011;53653;52.188;8.602;2022-09-03T22:21:44;6.60;;;2.75;;